sensor_id;sensor_type;location;lat;lon;timestamp;P1;durP1;ratioP1;P2;durP2;ratioP2
52956;SDS011;38819;42.692;23.342;2023-10-13T00:00:58;18.83;;;8.25;;
52956;SDS011;38819;42.692;23.342;2023-10-13T00:03:24;14.75;;;8.07;;
52956;SDS011;38819;42.692;23.342;2023-10-13T00:05:50;12.00;;;7.73;;
52956;SDS011;38819;42.692;23.342;2023-10-13T00:08:17;17.90;;;8.10;;
52956;SDS011;38819;42.692;23.342;2023-10-13T00:10:45;14.50;;;8.02;;
52956;SDS011;38819;42.692;23.342;2023-10-13T00:13:12;17.17;;;8.23;;
52956;SDS011;38819;42.692;23.342;2023-10-13T00:15:42;17.50;;;9.13;;
52956;SDS011;38819;42.692;23.342;2023-10-13T00:18:25;17.05;;;7.88;;
52956;SDS011;38819;42.692;23.342;2023-10-13T00:20:52;16.25;;;8.50;;
52956;SDS011;38819;42.692;23.342;2023-10-13T00:23:21;11.75;;;8.23;;
52956;SDS011;38819;42.692;23.342;2023-10-13T00:25:48;14.70;;;8.35;;
52956;SDS011;38819;42.692;23.342;2023-10-13T00:28:24;13.63;;;8.53;;
52956;SDS011;38819;42.692;23.342;2023-10-13T00:30:52;17.60;;;8.82;;
52956;SDS011;38819;42.692;23.342;2023-10-13T00:33:28;17.23;;;7.97;;
52956;SDS011;38819;42.692;23.342;2023-10-13T00:35:57;19.80;;;8.10;;
52956;SDS011;38819;42.692;23.342;2023-10-13T00:38:23;12.18;;;7.65;;
52956;SDS011;38819;42.692;23.342;2023-10-13T00:40:49;14.60;;;7.78;;
52956;SDS011;38819;42.692;23.342;2023-10-13T00:43:18;20.23;;;8.07;;
52956;SDS011;38819;42.692;23.342;2023-10-13T00:45:45;14.63;;;8.00;;
52956;SDS011;38819;42.692;23.342;2023-10-13T00:48:23;14.43;;;7.45;;
52956;SDS011;38819;42.692;23.342;2023-10-13T00:50:58;13.30;;;7.57;;
52956;SDS011;38819;42.692;23.342;2023-10-13T00:56:05;16.08;;;8.40;;
52956;SDS011;38819;42.692;23.342;2023-10-13T01:01:04;18.20;;;8.45;;
52956;SDS011;38819;42.692;23.342;2023-10-13T01:03:47;19.88;;;8.73;;
52956;SDS011;38819;42.692;23.342;2023-10-13T01:06:28;18.40;;;7.63;;
52956;SDS011;38819;42.692;23.342;2023-10-13T01:08:58;15.70;;;7.82;;
52956;SDS011;38819;42.692;23.342;2023-10-13T01:11:45;14.77;;;8.02;;
52956;SDS011;38819;42.692;23.342;2023-10-13T01:14:17;21.40;;;8.35;;
52956;SDS011;38819;42.692;23.342;2023-10-13T01:16:47;15.35;;;8.15;;
52956;SDS011;38819;42.692;23.342;2023-10-13T01:19:17;18.40;;;9.48;;
52956;SDS011;38819;42.692;23.342;2023-10-13T01:21:44;13.50;;;8.20;;
52956;SDS011;38819;42.692;23.342;2023-10-13T01:24:10;12.27;;;7.00;;
52956;SDS011;38819;42.692;23.342;2023-10-13T01:26:42;19.25;;;7.78;;
52956;SDS011;38819;42.692;23.342;2023-10-13T01:29:08;18.10;;;8.52;;
52956;SDS011;38819;42.692;23.342;2023-10-13T01:31:43;13.65;;;8.32;;
52956;SDS011;38819;42.692;23.342;2023-10-13T01:34:16;17.88;;;8.90;;
52956;SDS011;38819;42.692;23.342;2023-10-13T01:36:53;10.70;;;7.93;;
52956;SDS011;38819;42.692;23.342;2023-10-13T01:39:21;14.10;;;8.30;;
52956;SDS011;38819;42.692;23.342;2023-10-13T01:41:51;16.20;;;8.35;;
52956;SDS011;38819;42.692;23.342;2023-10-13T01:44:20;13.85;;;8.25;;
52956;SDS011;38819;42.692;23.342;2023-10-13T01:46:51;16.70;;;8.48;;
52956;SDS011;38819;42.692;23.342;2023-10-13T01:49:17;12.95;;;8.43;;
52956;SDS011;38819;42.692;23.342;2023-10-13T01:51:42;13.43;;;7.72;;
52956;SDS011;38819;42.692;23.342;2023-10-13T01:54:12;13.35;;;8.43;;
52956;SDS011;38819;42.692;23.342;2023-10-13T01:56:38;12.90;;;8.27;;
52956;SDS011;38819;42.692;23.342;2023-10-13T01:59:13;10.45;;;7.38;;
52956;SDS011;38819;42.692;23.342;2023-10-13T02:01:40;17.43;;;9.23;;
52956;SDS011;38819;42.692;23.342;2023-10-13T02:04:07;15.02;;;9.68;;
52956;SDS011;38819;42.692;23.342;2023-10-13T02:06:36;16.38;;;9.02;;
52956;SDS011;38819;42.692;23.342;2023-10-13T02:09:03;15.70;;;9.40;;
52956;SDS011;38819;42.692;23.342;2023-10-13T02:11:41;14.40;;;8.90;;
52956;SDS011;38819;42.692;23.342;2023-10-13T02:14:14;15.77;;;9.02;;
52956;SDS011;38819;42.692;23.342;2023-10-13T02:16:43;13.35;;;8.85;;
52956;SDS011;38819;42.692;23.342;2023-10-13T02:19:11;19.15;;;9.48;;
52956;SDS011;38819;42.692;23.342;2023-10-13T02:21:40;16.50;;;8.38;;
52956;SDS011;38819;42.692;23.342;2023-10-13T02:24:09;21.60;;;7.93;;
52956;SDS011;38819;42.692;23.342;2023-10-13T02:26:46;15.65;;;9.90;;
52956;SDS011;38819;42.692;23.342;2023-10-13T02:29:11;16.65;;;9.05;;
52956;SDS011;38819;42.692;23.342;2023-10-13T02:31:42;16.15;;;7.85;;
52956;SDS011;38819;42.692;23.342;2023-10-13T02:34:19;13.80;;;9.02;;
52956;SDS011;38819;42.692;23.342;2023-10-13T02:36:47;17.50;;;9.68;;
52956;SDS011;38819;42.692;23.342;2023-10-13T02:39:16;18.60;;;7.75;;
52956;SDS011;38819;42.692;23.342;2023-10-13T02:41:51;25.77;;;8.07;;
52956;SDS011;38819;42.692;23.342;2023-10-13T02:44:17;17.45;;;8.75;;
52956;SDS011;38819;42.692;23.342;2023-10-13T02:46:52;14.43;;;9.02;;
52956;SDS011;38819;42.692;23.342;2023-10-13T02:49:20;19.45;;;8.40;;
52956;SDS011;38819;42.692;23.342;2023-10-13T02:51:47;16.25;;;8.02;;
52956;SDS011;38819;42.692;23.342;2023-10-13T02:54:12;19.73;;;8.93;;
52956;SDS011;38819;42.692;23.342;2023-10-13T02:56:43;16.60;;;9.13;;
52956;SDS011;38819;42.692;23.342;2023-10-13T02:59:22;18.58;;;8.90;;
52956;SDS011;38819;42.692;23.342;2023-10-13T03:02:04;16.20;;;9.57;;
52956;SDS011;38819;42.692;23.342;2023-10-13T03:04:50;20.83;;;8.65;;
52956;SDS011;38819;42.692;23.342;2023-10-13T03:07:16;14.90;;;8.25;;
52956;SDS011;38819;42.692;23.342;2023-10-13T03:09:51;15.65;;;8.80;;
52956;SDS011;38819;42.692;23.342;2023-10-13T03:12:17;16.13;;;9.13;;
52956;SDS011;38819;42.692;23.342;2023-10-13T03:14:46;13.52;;;8.57;;
52956;SDS011;38819;42.692;23.342;2023-10-13T03:17:20;20.48;;;8.20;;
52956;SDS011;38819;42.692;23.342;2023-10-13T03:19:58;19.10;;;7.72;;
52956;SDS011;38819;42.692;23.342;2023-10-13T03:22:24;15.13;;;8.63;;
52956;SDS011;38819;42.692;23.342;2023-10-13T03:24:56;16.25;;;9.20;;
52956;SDS011;38819;42.692;23.342;2023-10-13T03:27:25;18.95;;;8.70;;
52956;SDS011;38819;42.692;23.342;2023-10-13T03:30:05;17.95;;;8.73;;
52956;SDS011;38819;42.692;23.342;2023-10-13T03:32:38;18.73;;;8.90;;
52956;SDS011;38819;42.692;23.342;2023-10-13T03:35:11;20.67;;;8.43;;
52956;SDS011;38819;42.692;23.342;2023-10-13T03:37:52;18.83;;;8.52;;
52956;SDS011;38819;42.692;23.342;2023-10-13T03:40:19;19.70;;;8.57;;
52956;SDS011;38819;42.692;23.342;2023-10-13T03:42:49;18.25;;;7.50;;
52956;SDS011;38819;42.692;23.342;2023-10-13T03:45:41;19.67;;;8.38;;
52956;SDS011;38819;42.692;23.342;2023-10-13T03:48:12;17.05;;;8.05;;
52956;SDS011;38819;42.692;23.342;2023-10-13T03:51:06;17.48;;;8.45;;
52956;SDS011;38819;42.692;23.342;2023-10-13T03:53:40;22.42;;;8.57;;
52956;SDS011;38819;42.692;23.342;2023-10-13T03:56:23;19.48;;;8.75;;
52956;SDS011;38819;42.692;23.342;2023-10-13T03:58:56;15.70;;;8.55;;
52956;SDS011;38819;42.692;23.342;2023-10-13T04:01:46;20.45;;;9.20;;
52956;SDS011;38819;42.692;23.342;2023-10-13T04:04:27;23.42;;;9.00;;
52956;SDS011;38819;42.692;23.342;2023-10-13T04:07:01;17.40;;;8.30;;
52956;SDS011;38819;42.692;23.342;2023-10-13T04:09:30;18.23;;;8.43;;
52956;SDS011;38819;42.692;23.342;2023-10-13T04:11:56;16.83;;;9.23;;
52956;SDS011;38819;42.692;23.342;2023-10-13T04:14:31;17.85;;;10.15;;
52956;SDS011;38819;42.692;23.342;2023-10-13T04:17:16;17.83;;;9.48;;
52956;SDS011;38819;42.692;23.342;2023-10-13T04:19:49;16.98;;;9.50;;
52956;SDS011;38819;42.692;23.342;2023-10-13T04:22:34;16.67;;;8.55;;
52956;SDS011;38819;42.692;23.342;2023-10-13T04:25:12;17.33;;;8.45;;
52956;SDS011;38819;42.692;23.342;2023-10-13T04:28:10;15.63;;;8.52;;
52956;SDS011;38819;42.692;23.342;2023-10-13T04:33:35;14.50;;;9.45;;
52956;SDS011;38819;42.692;23.342;2023-10-13T04:38:50;15.45;;;9.23;;
52956;SDS011;38819;42.692;23.342;2023-10-13T04:43:59;17.30;;;9.02;;
52956;SDS011;38819;42.692;23.342;2023-10-13T04:46:51;17.52;;;9.38;;
52956;SDS011;38819;42.692;23.342;2023-10-13T04:49:20;18.27;;;10.07;;
52956;SDS011;38819;42.692;23.342;2023-10-13T04:51:59;16.80;;;9.95;;
52956;SDS011;38819;42.692;23.342;2023-10-13T04:54:38;18.95;;;9.55;;
52956;SDS011;38819;42.692;23.342;2023-10-13T04:57:16;18.55;;;9.80;;
52956;SDS011;38819;42.692;23.342;2023-10-13T04:59:50;19.77;;;9.23;;
52956;SDS011;38819;42.692;23.342;2023-10-13T05:02:34;19.30;;;9.43;;
52956;SDS011;38819;42.692;23.342;2023-10-13T05:07:50;20.80;;;10.20;;
52956;SDS011;38819;42.692;23.342;2023-10-13T05:10:35;21.23;;;10.32;;
52956;SDS011;38819;42.692;23.342;2023-10-13T05:13:20;29.02;;;9.48;;
52956;SDS011;38819;42.692;23.342;2023-10-13T05:16:04;20.00;;;9.95;;
52956;SDS011;38819;42.692;23.342;2023-10-13T05:18:48;25.40;;;11.90;;
52956;SDS011;38819;42.692;23.342;2023-10-13T05:21:32;20.02;;;10.23;;
52956;SDS011;38819;42.692;23.342;2023-10-13T05:24:16;18.98;;;10.63;;
52956;SDS011;38819;42.692;23.342;2023-10-13T05:27:00;22.00;;;10.50;;
52956;SDS011;38819;42.692;23.342;2023-10-13T05:29:45;24.55;;;10.10;;
52956;SDS011;38819;42.692;23.342;2023-10-13T05:32:30;17.77;;;10.15;;
52956;SDS011;38819;42.692;23.342;2023-10-13T05:35:14;41.13;;;9.85;;
52956;SDS011;38819;42.692;23.342;2023-10-13T05:37:59;29.35;;;12.07;;
52956;SDS011;38819;42.692;23.342;2023-10-13T05:40:56;23.10;;;10.27;;
52956;SDS011;38819;42.692;23.342;2023-10-13T05:43:41;21.13;;;10.13;;
52956;SDS011;38819;42.692;23.342;2023-10-13T05:46:25;22.92;;;10.48;;
52956;SDS011;38819;42.692;23.342;2023-10-13T05:48:51;28.08;;;10.57;;
52956;SDS011;38819;42.692;23.342;2023-10-13T05:51:37;30.45;;;11.18;;
52956;SDS011;38819;42.692;23.342;2023-10-13T05:54:03;23.40;;;10.65;;
52956;SDS011;38819;42.692;23.342;2023-10-13T05:56:38;30.00;;;13.27;;
52956;SDS011;38819;42.692;23.342;2023-10-13T05:59:30;37.20;;;11.60;;
52956;SDS011;38819;42.692;23.342;2023-10-13T06:02:16;27.08;;;11.68;;
52956;SDS011;38819;42.692;23.342;2023-10-13T06:05:01;29.73;;;12.00;;
52956;SDS011;38819;42.692;23.342;2023-10-13T06:07:46;23.83;;;11.73;;
52956;SDS011;38819;42.692;23.342;2023-10-13T06:10:30;20.48;;;11.57;;
52956;SDS011;38819;42.692;23.342;2023-10-13T06:13:13;25.27;;;12.98;;
52956;SDS011;38819;42.692;23.342;2023-10-13T06:15:57;21.52;;;12.90;;
52956;SDS011;38819;42.692;23.342;2023-10-13T06:18:41;22.92;;;11.88;;
52956;SDS011;38819;42.692;23.342;2023-10-13T06:21:25;29.23;;;12.70;;
52956;SDS011;38819;42.692;23.342;2023-10-13T06:24:09;25.83;;;12.10;;
52956;SDS011;38819;42.692;23.342;2023-10-13T06:26:53;24.95;;;13.30;;
52956;SDS011;38819;42.692;23.342;2023-10-13T06:29:37;33.00;;;12.65;;
52956;SDS011;38819;42.692;23.342;2023-10-13T06:32:03;38.65;;;14.73;;
52956;SDS011;38819;42.692;23.342;2023-10-13T06:34:35;28.60;;;14.55;;
52956;SDS011;38819;42.692;23.342;2023-10-13T06:37:09;32.08;;;13.75;;
52956;SDS011;38819;42.692;23.342;2023-10-13T06:39:59;29.63;;;14.60;;
52956;SDS011;38819;42.692;23.342;2023-10-13T06:42:31;41.08;;;15.13;;
52956;SDS011;38819;42.692;23.342;2023-10-13T06:44:59;34.58;;;15.63;;
52956;SDS011;38819;42.692;23.342;2023-10-13T06:47:28;36.50;;;15.98;;
52956;SDS011;38819;42.692;23.342;2023-10-13T06:49:54;34.60;;;14.60;;
52956;SDS011;38819;42.692;23.342;2023-10-13T06:54:50;31.65;;;14.02;;
52956;SDS011;38819;42.692;23.342;2023-10-13T06:57:16;33.60;;;14.40;;
52956;SDS011;38819;42.692;23.342;2023-10-13T06:59:46;35.55;;;15.80;;
52956;SDS011;38819;42.692;23.342;2023-10-13T07:02:12;39.25;;;15.23;;
52956;SDS011;38819;42.692;23.342;2023-10-13T07:04:46;38.67;;;15.93;;
52956;SDS011;38819;42.692;23.342;2023-10-13T07:07:12;40.73;;;15.23;;
52956;SDS011;38819;42.692;23.342;2023-10-13T07:09:43;35.55;;;15.68;;
52956;SDS011;38819;42.692;23.342;2023-10-13T07:12:20;27.48;;;14.05;;
52956;SDS011;38819;42.692;23.342;2023-10-13T07:14:52;35.28;;;18.02;;
52956;SDS011;38819;42.692;23.342;2023-10-13T07:17:36;37.45;;;15.07;;
52956;SDS011;38819;42.692;23.342;2023-10-13T07:20:04;30.95;;;15.98;;
52956;SDS011;38819;42.692;23.342;2023-10-13T07:22:43;31.08;;;15.10;;
52956;SDS011;38819;42.692;23.342;2023-10-13T07:25:22;36.20;;;16.55;;
52956;SDS011;38819;42.692;23.342;2023-10-13T07:27:50;32.53;;;16.50;;
52956;SDS011;38819;42.692;23.342;2023-10-13T07:30:16;32.72;;;15.90;;
52956;SDS011;38819;42.692;23.342;2023-10-13T07:32:45;36.60;;;16.08;;
52956;SDS011;38819;42.692;23.342;2023-10-13T07:35:19;27.88;;;14.95;;
52956;SDS011;38819;42.692;23.342;2023-10-13T07:37:49;35.55;;;15.93;;
52956;SDS011;38819;42.692;23.342;2023-10-13T07:40:17;31.58;;;15.95;;
52956;SDS011;38819;42.692;23.342;2023-10-13T07:42:52;31.13;;;16.48;;
52956;SDS011;38819;42.692;23.342;2023-10-13T07:45:25;27.75;;;15.82;;
52956;SDS011;38819;42.692;23.342;2023-10-13T07:48:03;37.45;;;15.60;;
52956;SDS011;38819;42.692;23.342;2023-10-13T07:50:57;30.63;;;16.05;;
52956;SDS011;38819;42.692;23.342;2023-10-13T07:53:32;39.28;;;15.80;;
52956;SDS011;38819;42.692;23.342;2023-10-13T07:56:04;34.78;;;15.95;;
52956;SDS011;38819;42.692;23.342;2023-10-13T07:58:33;30.80;;;16.05;;
52956;SDS011;38819;42.692;23.342;2023-10-13T08:01:00;33.42;;;16.13;;
52956;SDS011;38819;42.692;23.342;2023-10-13T08:03:33;37.35;;;17.50;;
52956;SDS011;38819;42.692;23.342;2023-10-13T08:06:04;27.65;;;16.25;;
52956;SDS011;38819;42.692;23.342;2023-10-13T08:08:32;33.75;;;16.75;;
52956;SDS011;38819;42.692;23.342;2023-10-13T08:11:07;41.67;;;16.38;;
52956;SDS011;38819;42.692;23.342;2023-10-13T08:13:51;35.42;;;16.27;;
52956;SDS011;38819;42.692;23.342;2023-10-13T08:16:24;35.13;;;16.58;;
52956;SDS011;38819;42.692;23.342;2023-10-13T08:19:12;40.75;;;17.17;;
52956;SDS011;38819;42.692;23.342;2023-10-13T08:21:45;34.75;;;16.40;;
52956;SDS011;38819;42.692;23.342;2023-10-13T08:24:17;34.83;;;16.65;;
52956;SDS011;38819;42.692;23.342;2023-10-13T08:27:03;33.17;;;16.67;;
52956;SDS011;38819;42.692;23.342;2023-10-13T08:29:44;32.15;;;16.48;;
52956;SDS011;38819;42.692;23.342;2023-10-13T08:32:21;38.65;;;16.58;;
52956;SDS011;38819;42.692;23.342;2023-10-13T08:34:53;34.55;;;16.17;;
52956;SDS011;38819;42.692;23.342;2023-10-13T08:37:20;37.72;;;16.85;;
52956;SDS011;38819;42.692;23.342;2023-10-13T08:39:52;33.17;;;15.52;;
52956;SDS011;38819;42.692;23.342;2023-10-13T08:42:34;34.58;;;16.52;;
52956;SDS011;38819;42.692;23.342;2023-10-13T08:45:05;41.35;;;16.77;;
52956;SDS011;38819;42.692;23.342;2023-10-13T08:47:54;35.53;;;16.52;;
52956;SDS011;38819;42.692;23.342;2023-10-13T08:50:43;37.50;;;16.48;;
52956;SDS011;38819;42.692;23.342;2023-10-13T09:01:28;31.23;;;16.38;;
52956;SDS011;38819;42.692;23.342;2023-10-13T09:06:43;35.67;;;18.33;;
52956;SDS011;38819;42.692;23.342;2023-10-13T09:12:21;49.25;;;18.20;;
52956;SDS011;38819;42.692;23.342;2023-10-13T09:15:08;41.60;;;17.10;;
52956;SDS011;38819;42.692;23.342;2023-10-13T09:17:47;34.72;;;17.02;;
52956;SDS011;38819;42.692;23.342;2023-10-13T09:20:17;45.03;;;17.20;;
52956;SDS011;38819;42.692;23.342;2023-10-13T09:23:11;39.38;;;17.38;;
52956;SDS011;38819;42.692;23.342;2023-10-13T09:25:49;36.38;;;17.40;;
52956;SDS011;38819;42.692;23.342;2023-10-13T09:28:33;32.97;;;16.10;;
52956;SDS011;38819;42.692;23.342;2023-10-13T09:31:02;38.80;;;15.57;;
52956;SDS011;38819;42.692;23.342;2023-10-13T09:33:31;29.92;;;16.67;;
52956;SDS011;38819;42.692;23.342;2023-10-13T09:36:05;30.95;;;16.95;;
52956;SDS011;38819;42.692;23.342;2023-10-13T09:38:32;39.70;;;18.90;;
52956;SDS011;38819;42.692;23.342;2023-10-13T09:41:05;47.70;;;15.98;;
52956;SDS011;38819;42.692;23.342;2023-10-13T09:43:43;35.92;;;15.02;;
52956;SDS011;38819;42.692;23.342;2023-10-13T09:46:10;35.60;;;16.23;;
52956;SDS011;38819;42.692;23.342;2023-10-13T09:48:45;34.42;;;15.60;;
52956;SDS011;38819;42.692;23.342;2023-10-13T09:51:18;27.65;;;15.80;;
52956;SDS011;38819;42.692;23.342;2023-10-13T09:54:22;26.65;;;13.60;;
52956;SDS011;38819;42.692;23.342;2023-10-13T09:57:12;24.63;;;12.68;;
52956;SDS011;38819;42.692;23.342;2023-10-13T09:59:50;23.25;;;12.32;;
52956;SDS011;38819;42.692;23.342;2023-10-13T10:02:30;26.30;;;12.43;;
52956;SDS011;38819;42.692;23.342;2023-10-13T10:04:56;140.65;;;98.60;;
52956;SDS011;38819;42.692;23.342;2023-10-13T10:07:56;36.45;;;16.10;;
52956;SDS011;38819;42.692;23.342;2023-10-13T10:12:53;19.05;;;10.23;;
52956;SDS011;38819;42.692;23.342;2023-10-13T10:15:34;24.83;;;11.45;;
52956;SDS011;38819;42.692;23.342;2023-10-13T10:18:17;19.10;;;9.70;;
52956;SDS011;38819;42.692;23.342;2023-10-13T10:20:44;19.20;;;12.40;;
52956;SDS011;38819;42.692;23.342;2023-10-13T10:25:48;27.83;;;9.98;;
52956;SDS011;38819;42.692;23.342;2023-10-13T10:28:16;20.60;;;11.27;;
52956;SDS011;38819;42.692;23.342;2023-10-13T10:30:44;18.77;;;8.43;;
52956;SDS011;38819;42.692;23.342;2023-10-13T10:33:10;16.48;;;7.43;;
52956;SDS011;38819;42.692;23.342;2023-10-13T10:35:44;14.27;;;6.30;;
52956;SDS011;38819;42.692;23.342;2023-10-13T10:38:14;13.23;;;6.57;;
52956;SDS011;38819;42.692;23.342;2023-10-13T10:43:26;23.15;;;9.35;;
52956;SDS011;38819;42.692;23.342;2023-10-13T10:46:17;15.75;;;6.57;;
52956;SDS011;38819;42.692;23.342;2023-10-13T10:51:21;9.25;;;6.25;;
52956;SDS011;38819;42.692;23.342;2023-10-13T10:53:50;12.43;;;6.00;;
52956;SDS011;38819;42.692;23.342;2023-10-13T10:56:18;16.92;;;6.88;;
52956;SDS011;38819;42.692;23.342;2023-10-13T10:59:02;14.90;;;6.22;;
52956;SDS011;38819;42.692;23.342;2023-10-13T11:01:30;8.45;;;5.63;;
52956;SDS011;38819;42.692;23.342;2023-10-13T11:04:04;16.08;;;6.63;;
52956;SDS011;38819;42.692;23.342;2023-10-13T11:06:34;8.55;;;5.53;;
52956;SDS011;38819;42.692;23.342;2023-10-13T11:09:06;16.13;;;6.03;;
52956;SDS011;38819;42.692;23.342;2023-10-13T11:11:44;12.48;;;5.70;;
52956;SDS011;38819;42.692;23.342;2023-10-13T11:14:19;13.43;;;5.53;;
52956;SDS011;38819;42.692;23.342;2023-10-13T11:16:57;10.38;;;5.00;;
52956;SDS011;38819;42.692;23.342;2023-10-13T11:19:34;11.38;;;5.40;;
52956;SDS011;38819;42.692;23.342;2023-10-13T11:24:57;8.85;;;4.55;;
52956;SDS011;38819;42.692;23.342;2023-10-13T11:27:33;12.02;;;4.03;;
52956;SDS011;38819;42.692;23.342;2023-10-13T11:30:11;9.77;;;4.18;;
52956;SDS011;38819;42.692;23.342;2023-10-13T11:32:59;8.80;;;3.78;;
52956;SDS011;38819;42.692;23.342;2023-10-13T11:35:29;13.15;;;4.13;;
52956;SDS011;38819;42.692;23.342;2023-10-13T11:38:13;9.00;;;3.53;;
52956;SDS011;38819;42.692;23.342;2023-10-13T11:40:39;8.15;;;3.70;;
52956;SDS011;38819;42.692;23.342;2023-10-13T11:43:23;9.73;;;3.75;;
52956;SDS011;38819;42.692;23.342;2023-10-13T11:45:49;10.13;;;4.25;;
52956;SDS011;38819;42.692;23.342;2023-10-13T11:48:38;6.50;;;3.30;;
52956;SDS011;38819;42.692;23.342;2023-10-13T11:51:07;7.32;;;2.90;;
52956;SDS011;38819;42.692;23.342;2023-10-13T11:53:37;9.27;;;2.85;;
52956;SDS011;38819;42.692;23.342;2023-10-13T11:56:03;8.13;;;3.00;;
52956;SDS011;38819;42.692;23.342;2023-10-13T11:58:34;9.77;;;2.78;;
52956;SDS011;38819;42.692;23.342;2023-10-13T12:01:00;13.27;;;3.40;;
52956;SDS011;38819;42.692;23.342;2023-10-13T12:03:37;7.47;;;2.85;;
52956;SDS011;38819;42.692;23.342;2023-10-13T12:06:32;8.00;;;3.08;;
52956;SDS011;38819;42.692;23.342;2023-10-13T12:09:08;9.73;;;3.35;;
52956;SDS011;38819;42.692;23.342;2023-10-13T12:11:37;9.07;;;2.83;;
52956;SDS011;38819;42.692;23.342;2023-10-13T12:14:07;10.52;;;3.42;;
52956;SDS011;38819;42.692;23.342;2023-10-13T12:16:43;11.82;;;2.70;;
52956;SDS011;38819;42.692;23.342;2023-10-13T12:19:13;5.80;;;3.05;;
52956;SDS011;38819;42.692;23.342;2023-10-13T12:21:41;7.00;;;2.75;;
52956;SDS011;38819;42.692;23.342;2023-10-13T12:24:08;4.90;;;2.97;;
52956;SDS011;38819;42.692;23.342;2023-10-13T12:26:46;10.02;;;3.22;;
52956;SDS011;38819;42.692;23.342;2023-10-13T12:29:12;9.93;;;3.75;;
52956;SDS011;38819;42.692;23.342;2023-10-13T12:31:47;19.75;;;8.00;;
52956;SDS011;38819;42.692;23.342;2023-10-13T12:34:26;16.10;;;6.10;;
52956;SDS011;38819;42.692;23.342;2023-10-13T12:37:11;12.75;;;3.63;;
52956;SDS011;38819;42.692;23.342;2023-10-13T12:39:57;10.55;;;5.30;;
52956;SDS011;38819;42.692;23.342;2023-10-13T12:42:40;15.57;;;8.50;;
52956;SDS011;38819;42.692;23.342;2023-10-13T12:45:24;7.75;;;3.10;;
52956;SDS011;38819;42.692;23.342;2023-10-13T12:48:08;8.40;;;4.53;;
52956;SDS011;38819;42.692;23.342;2023-10-13T12:50:52;10.70;;;3.45;;
52956;SDS011;38819;42.692;23.342;2023-10-13T12:53:32;13.23;;;4.70;;
52956;SDS011;38819;42.692;23.342;2023-10-13T12:55:58;13.00;;;6.72;;
52956;SDS011;38819;42.692;23.342;2023-10-13T12:58:23;12.48;;;6.18;;
52956;SDS011;38819;42.692;23.342;2023-10-13T13:00:52;12.55;;;4.60;;
52956;SDS011;38819;42.692;23.342;2023-10-13T13:03:26;11.25;;;3.92;;
52956;SDS011;38819;42.692;23.342;2023-10-13T13:05:54;7.68;;;2.95;;
52956;SDS011;38819;42.692;23.342;2023-10-13T13:08:21;9.25;;;4.75;;
52956;SDS011;38819;42.692;23.342;2023-10-13T13:10:49;7.70;;;4.70;;
52956;SDS011;38819;42.692;23.342;2023-10-13T13:13:15;10.02;;;5.85;;
52956;SDS011;38819;42.692;23.342;2023-10-13T13:15:42;10.57;;;4.13;;
52956;SDS011;38819;42.692;23.342;2023-10-13T13:18:07;6.57;;;3.58;;
52956;SDS011;38819;42.692;23.342;2023-10-13T13:20:39;8.70;;;3.63;;
52956;SDS011;38819;42.692;23.342;2023-10-13T13:23:08;7.03;;;3.33;;
52956;SDS011;38819;42.692;23.342;2023-10-13T13:25:37;9.45;;;3.00;;
52956;SDS011;38819;42.692;23.342;2023-10-13T13:28:07;8.65;;;3.80;;
52956;SDS011;38819;42.692;23.342;2023-10-13T13:30:35;14.00;;;4.80;;
52956;SDS011;38819;42.692;23.342;2023-10-13T13:33:02;6.07;;;2.90;;
52956;SDS011;38819;42.692;23.342;2023-10-13T13:35:36;11.35;;;3.03;;
52956;SDS011;38819;42.692;23.342;2023-10-13T13:38:07;10.43;;;3.15;;
52956;SDS011;38819;42.692;23.342;2023-10-13T13:40:47;7.88;;;3.30;;
52956;SDS011;38819;42.692;23.342;2023-10-13T13:43:14;9.60;;;5.03;;
52956;SDS011;38819;42.692;23.342;2023-10-13T13:45:57;7.15;;;3.40;;
52956;SDS011;38819;42.692;23.342;2023-10-13T13:48:26;13.45;;;3.55;;
52956;SDS011;38819;42.692;23.342;2023-10-13T13:50:53;9.25;;;3.03;;
52956;SDS011;38819;42.692;23.342;2023-10-13T13:53:28;7.07;;;3.28;;
52956;SDS011;38819;42.692;23.342;2023-10-13T13:55:59;9.55;;;3.30;;
52956;SDS011;38819;42.692;23.342;2023-10-13T13:58:32;5.70;;;3.08;;
52956;SDS011;38819;42.692;23.342;2023-10-13T14:01:01;15.57;;;3.55;;
52956;SDS011;38819;42.692;23.342;2023-10-13T14:03:43;11.07;;;3.90;;
52956;SDS011;38819;42.692;23.342;2023-10-13T14:06:14;10.35;;;2.80;;
52956;SDS011;38819;42.692;23.342;2023-10-13T14:08:47;9.93;;;3.70;;
52956;SDS011;38819;42.692;23.342;2023-10-13T14:11:23;6.50;;;3.13;;
52956;SDS011;38819;42.692;23.342;2023-10-13T14:14:08;9.30;;;3.40;;
52956;SDS011;38819;42.692;23.342;2023-10-13T14:16:38;10.00;;;3.28;;
52956;SDS011;38819;42.692;23.342;2023-10-13T14:19:12;8.65;;;3.58;;
52956;SDS011;38819;42.692;23.342;2023-10-13T14:21:56;10.85;;;3.90;;
52956;SDS011;38819;42.692;23.342;2023-10-13T14:24:22;11.90;;;3.72;;
52956;SDS011;38819;42.692;23.342;2023-10-13T14:27:09;11.50;;;3.85;;
52956;SDS011;38819;42.692;23.342;2023-10-13T14:29:40;11.98;;;3.80;;
52956;SDS011;38819;42.692;23.342;2023-10-13T14:32:10;8.85;;;4.03;;
52956;SDS011;38819;42.692;23.342;2023-10-13T14:34:42;10.30;;;3.30;;
52956;SDS011;38819;42.692;23.342;2023-10-13T14:37:08;9.05;;;3.35;;
52956;SDS011;38819;42.692;23.342;2023-10-13T14:39:37;13.75;;;3.70;;
52956;SDS011;38819;42.692;23.342;2023-10-13T14:42:06;16.95;;;4.80;;
52956;SDS011;38819;42.692;23.342;2023-10-13T14:44:32;16.83;;;4.72;;
52956;SDS011;38819;42.692;23.342;2023-10-13T14:46:58;13.45;;;5.55;;
52956;SDS011;38819;42.692;23.342;2023-10-13T14:49:24;12.35;;;3.97;;
52956;SDS011;38819;42.692;23.342;2023-10-13T14:51:50;16.75;;;4.25;;
52956;SDS011;38819;42.692;23.342;2023-10-13T14:54:15;13.10;;;4.60;;
52956;SDS011;38819;42.692;23.342;2023-10-13T14:56:41;10.88;;;4.00;;
52956;SDS011;38819;42.692;23.342;2023-10-13T14:59:07;11.30;;;4.43;;
52956;SDS011;38819;42.692;23.342;2023-10-13T15:01:41;15.07;;;4.90;;
52956;SDS011;38819;42.692;23.342;2023-10-13T15:04:07;8.48;;;3.83;;
52956;SDS011;38819;42.692;23.342;2023-10-13T15:06:33;13.32;;;4.57;;
52956;SDS011;38819;42.692;23.342;2023-10-13T15:08:59;9.10;;;3.38;;
52956;SDS011;38819;42.692;23.342;2023-10-13T15:11:25;10.70;;;3.53;;
52956;SDS011;38819;42.692;23.342;2023-10-13T15:13:54;10.10;;;3.97;;
52956;SDS011;38819;42.692;23.342;2023-10-13T15:16:22;8.75;;;3.92;;
52956;SDS011;38819;42.692;23.342;2023-10-13T15:18:49;10.05;;;3.70;;
52956;SDS011;38819;42.692;23.342;2023-10-13T15:23:53;11.57;;;3.13;;
52956;SDS011;38819;42.692;23.342;2023-10-13T15:26:24;10.45;;;3.33;;
52956;SDS011;38819;42.692;23.342;2023-10-13T15:28:50;13.30;;;3.33;;
52956;SDS011;38819;42.692;23.342;2023-10-13T15:31:20;11.30;;;6.63;;
52956;SDS011;38819;42.692;23.342;2023-10-13T15:34:12;16.38;;;6.22;;
52956;SDS011;38819;42.692;23.342;2023-10-13T15:36:39;8.52;;;4.57;;
52956;SDS011;38819;42.692;23.342;2023-10-13T15:39:05;13.05;;;5.57;;
52956;SDS011;38819;42.692;23.342;2023-10-13T15:41:33;10.23;;;5.55;;
52956;SDS011;38819;42.692;23.342;2023-10-13T15:43:58;15.00;;;6.45;;
52956;SDS011;38819;42.692;23.342;2023-10-13T15:46:24;12.18;;;5.68;;